createdAt,value
2017-05-12T00:01:07.158Z,28.59
2017-05-12T00:02:17.746Z,28.49
2017-05-12T00:03:28.027Z,28.69
2017-05-12T00:04:38.306Z,28.59
2017-05-12T00:05:48.598Z,28.69
2017-05-12T00:06:58.577Z,28.59
2017-05-12T00:08:08.800Z,28.78
2017-05-12T00:09:19.083Z,28.78
2017-05-12T00:10:29.357Z,28.88
2017-05-12T00:11:39.640Z,28.78
2017-05-12T00:12:49.958Z,28.78
2017-05-12T00:14:00.545Z,28.88
2017-05-12T00:15:10.512Z,28.69
2017-05-12T00:16:20.789Z,28.69
2017-05-12T00:17:31.084Z,28.88
2017-05-12T00:18:41.368Z,28.88
2017-05-12T00:19:51.650Z,28.97
2017-05-12T00:21:01.926Z,28.88
2017-05-12T00:22:12.201Z,28.88
2017-05-12T00:23:22.487Z,28.88
2017-05-12T00:24:34.170Z,28.97
2017-05-12T00:25:44.097Z,28.78
2017-05-12T00:26:54.376Z,28.88
2017-05-12T00:28:04.653Z,28.88
2017-05-12T00:29:14.934Z,28.88
2017-05-12T00:30:25.218Z,28.88
2017-05-12T00:31:35.439Z,28.88
2017-05-12T00:32:45.401Z,28.78
2017-05-12T00:33:55.376Z,28.97
2017-05-12T00:35:05.664Z,28.78
2017-05-12T00:36:15.955Z,28.88
2017-05-12T00:37:26.479Z,28.88
2017-05-12T00:38:36.752Z,28.97
2017-05-12T00:39:46.731Z,28.97
2017-05-12T00:40:56.706Z,28.88
2017-05-12T00:42:06.691Z,29.07
2017-05-12T00:43:16.989Z,28.97
2017-05-12T00:44:27.266Z,29.07
2017-05-12T00:45:37.238Z,29.07
2017-05-12T00:46:47.209Z,29.07
2017-05-12T00:47:57.498Z,29.07
2017-05-12T00:49:08.027Z,29.07
2017-05-12T00:50:18.000Z,29.07
2017-05-12T00:51:27.970Z,29.07
2017-05-12T00:52:37.939Z,29.27
2017-05-12T00:53:48.229Z,29.46
2017-05-12T00:54:58.497Z,29.55
2017-05-12T00:56:08.481Z,29.55
2017-05-12T00:57:18.448Z,29.55
2017-05-12T00:58:28.739Z,29.36
2017-05-12T00:59:39.031Z,29.46
2017-05-12T01:00:49.271Z,28.97
2017-05-12T01:01:59.553Z,29.55
2017-05-12T01:03:09.526Z,29.55
2017-05-12T01:04:19.648Z,29.17
2017-05-12T01:05:29.929Z,29.27
2017-05-12T01:06:40.534Z,29.55
2017-05-12T01:07:50.503Z,29.55
2017-05-12T01:09:00.801Z,29.55
2017-05-12T01:10:11.023Z,29.36
2017-05-12T01:11:21.302Z,29.36
2017-05-12T01:12:31.835Z,29.55
2017-05-12T01:13:42.127Z,29.65
2017-05-12T01:14:52.451Z,29.55
2017-05-12T01:16:02.725Z,29.55
2017-05-12T01:17:13.013Z,29.36
2017-05-12T01:18:22.928Z,29.36
2017-05-12T01:19:33.215Z,29.36
2017-05-12T01:20:43.510Z,29.65
2017-05-12T01:21:53.799Z,29.65
2017-05-12T01:23:04.102Z,29.55
2017-05-12T01:24:14.626Z,29.36
2017-05-12T01:25:24.910Z,29.36
2017-05-12T01:26:35.199Z,29.46
2017-05-12T01:27:45.209Z,29.27
2017-05-12T01:28:55.494Z,29.36
2017-05-12T01:30:05.724Z,29.27
2017-05-12T01:31:15.382Z,29.36
2017-05-12T01:32:25.667Z,29.36
2017-05-12T01:33:35.638Z,29.17
2017-05-12T01:34:45.923Z,29.07
2017-05-12T01:35:56.514Z,29.25
2017-05-12T01:37:06.494Z,29.17
2017-05-12T01:38:16.777Z,29.17
2017-05-12T01:39:26.747Z,29.27
2017-05-12T01:40:37.027Z,29.27
2017-05-12T01:41:47.565Z,29.15
2017-05-12T01:42:57.860Z,29.15
2017-05-12T01:44:08.179Z,29.27
2017-05-12T01:45:17.842Z,29.27
2017-05-12T01:46:27.502Z,29.25
2017-05-12T01:47:38.089Z,29.35
2017-05-12T01:48:48.395Z,29.35
2017-05-12T01:49:58.680Z,29.35
2017-05-12T01:51:08.950Z,29.35
2017-05-12T01:52:18.924Z,29.46
2017-05-12T01:53:29.460Z,29.36
2017-05-12T01:54:39.739Z,29.44
2017-05-12T01:55:50.025Z,29.35
2017-05-12T01:57:00.301Z,29.44
2017-05-12T01:58:10.270Z,29.44
2017-05-12T01:59:20.857Z,29.73
2017-05-12T02:00:31.130Z,29.35
2017-05-12T02:01:41.417Z,29.44
2017-05-12T02:02:51.390Z,29.44
2017-05-12T02:04:01.680Z,29.35
2017-05-12T02:05:12.258Z,29.63
2017-05-12T02:06:22.540Z,29.63
2017-05-12T02:07:32.823Z,29.54
2017-05-12T02:08:43.104Z,29.35
2017-05-12T02:09:53.382Z,29.65
2017-05-12T02:11:03.599Z,29.63
2017-05-12T02:12:13.569Z,29.73
2017-05-12T02:13:23.549Z,29.73
2017-05-12T02:14:33.827Z,29.63
2017-05-12T02:15:44.108Z,29.63
2017-05-12T02:16:54.701Z,29.63
2017-05-12T02:18:04.670Z,29.63
2017-05-12T02:19:14.632Z,29.54
2017-05-12T02:20:24.921Z,29.63
2017-05-12T02:21:34.885Z,29.54
2017-05-12T02:22:45.424Z,29.73
2017-05-12T02:23:55.731Z,29.54
2017-05-12T02:25:06.008Z,29.73
2017-05-12T02:26:16.299Z,29.54
2017-05-12T02:27:26.267Z,29.44
2017-05-12T02:28:36.840Z,29.54
2017-05-12T02:29:47.126Z,29.44
2017-05-12T02:30:57.107Z,29.54
2017-05-12T02:32:07.380Z,29.83
2017-05-12T02:33:17.655Z,29.83
2017-05-12T02:34:28.186Z,29.73
2017-05-12T02:35:38.513Z,29.73
2017-05-12T02:36:48.791Z,29.54
2017-05-12T02:37:59.068Z,29.44
2017-05-12T02:39:09.042Z,29.54
2017-05-12T02:40:19.582Z,29.63
2017-05-12T02:41:30.103Z,29.73
2017-05-12T02:42:40.433Z,29.54
2017-05-12T02:43:50.404Z,29.63
2017-05-12T02:45:00.686Z,29.73
2017-05-12T02:46:11.264Z,29.83
2017-05-12T02:47:21.539Z,29.83
2017-05-12T02:48:31.811Z,29.63
2017-05-12T02:49:41.788Z,29.63
2017-05-12T02:50:52.625Z,29.73
2017-05-12T02:52:03.156Z,29.83
2017-05-12T02:53:13.438Z,29.63
2017-05-12T02:54:23.411Z,29.63
2017-05-12T02:55:33.082Z,29.63
2017-05-12T02:56:43.105Z,29.63
2017-05-12T02:57:53.364Z,29.93
2017-05-12T02:59:03.650Z,29.63
2017-05-12T03:00:13.931Z,29.63
2017-05-12T03:01:24.215Z,29.73
2017-05-12T03:02:34.498Z,29.54
2017-05-12T03:03:44.765Z,29.73
2017-05-12T03:04:55.060Z,29.83
2017-05-12T03:06:05.347Z,29.93
2017-05-12T03:07:15.638Z,29.63
2017-05-12T03:08:25.916Z,29.83
2017-05-12T03:09:36.496Z,29.73
2017-05-12T03:10:46.780Z,29.83
2017-05-12T03:11:57.076Z,29.83
2017-05-12T03:13:07.355Z,29.93
2017-05-12T03:14:17.315Z,29.83
2017-05-12T03:15:27.632Z,29.54
2017-05-12T03:16:37.956Z,29.83
2017-05-12T03:17:48.239Z,29.93
2017-05-12T03:18:58.207Z,29.83
2017-05-12T03:20:08.185Z,29.44
2017-05-12T03:21:18.726Z,29.83
2017-05-12T03:22:28.695Z,29.44
2017-05-12T03:23:38.975Z,29.83
2017-05-12T03:24:48.952Z,29.73
2017-05-12T03:25:58.937Z,29.83
2017-05-12T03:27:09.510Z,29.83
2017-05-12T03:28:19.792Z,29.73
2017-05-12T03:29:30.076Z,29.73
2017-05-12T03:30:40.375Z,29.93
2017-05-12T03:31:50.659Z,29.83
2017-05-12T03:33:01.252Z,29.83
2017-05-12T03:34:11.538Z,29.73
2017-05-12T03:35:21.826Z,29.73
2017-05-12T03:36:31.804Z,29.83
2017-05-12T03:37:42.082Z,29.73
2017-05-12T03:38:52.358Z,29.93
2017-05-12T03:40:02.632Z,29.83
2017-05-12T03:41:12.607Z,29.73
2017-05-12T03:42:22.891Z,29.73
2017-05-12T03:43:33.171Z,29.83
2017-05-12T03:44:43.744Z,29.93
2017-05-12T03:45:54.024Z,29.83
2017-05-12T03:47:03.984Z,29.73
2017-05-12T03:48:14.261Z,29.83
2017-05-12T03:49:24.544Z,29.93
2017-05-12T03:50:35.126Z,29.73
2017-05-12T03:51:45.093Z,29.73
2017-05-12T03:52:55.054Z,29.73
2017-05-12T03:54:05.326Z,29.83
2017-05-12T03:55:15.614Z,29.83
2017-05-12T03:56:26.149Z,29.83
2017-05-12T03:57:36.443Z,29.73
2017-05-12T03:58:46.406Z,29.83
2017-05-12T03:59:56.691Z,29.73
2017-05-12T04:01:06.665Z,29.83
2017-05-12T04:02:16.577Z,29.73
2017-05-12T04:03:26.544Z,29.83
2017-05-12T04:04:36.827Z,29.83
2017-05-12T04:05:47.102Z,29.83
2017-05-12T04:06:57.376Z,29.93
2017-05-12T04:08:07.910Z,29.93
2017-05-12T04:09:18.186Z,29.44
2017-05-12T04:10:28.475Z,29.54
2017-05-12T04:11:38.750Z,29.63
2017-05-12T04:12:49.040Z,30.02
2017-05-12T04:13:59.461Z,29.73
2017-05-12T04:15:09.734Z,29.73
2017-05-12T04:16:20.003Z,29.84
2017-05-12T04:17:30.293Z,29.84
2017-05-12T04:18:40.569Z,29.84
2017-05-12T04:19:51.154Z,29.84
2017-05-12T04:21:01.429Z,29.74
2017-05-12T04:22:11.719Z,29.36
2017-05-12T04:23:21.725Z,29.65
2017-05-12T04:24:32.080Z,29.28
2017-05-12T04:25:42.612Z,29.18
2017-05-12T04:26:52.894Z,29.18
2017-05-12T04:28:02.863Z,29.28
2017-05-12T04:29:12.829Z,29.28
2017-05-12T04:30:23.141Z,29.28
2017-05-12T04:31:33.678Z,29.18
2017-05-12T04:32:43.646Z,29.47
2017-05-12T04:33:53.931Z,29.38
2017-05-12T04:35:03.897Z,28.81
2017-05-12T04:36:14.218Z,28.81
2017-05-12T04:37:24.490Z,28.61
2017-05-12T04:38:34.768Z,28.51
2017-05-12T04:39:44.432Z,28.51
2017-05-12T04:40:54.731Z,28.61
2017-05-12T04:42:05.022Z,28.61
2017-05-12T04:43:15.288Z,28.61
2017-05-12T04:44:25.575Z,28.61
2017-05-12T04:45:35.849Z,28.51
2017-05-12T04:46:45.845Z,28.61
2017-05-12T04:47:56.147Z,28.61
2017-05-12T04:49:06.748Z,28.51
2017-05-12T04:50:17.032Z,28.61
2017-05-12T04:51:27.312Z,28.52
2017-05-12T04:52:37.612Z,28.72
2017-05-12T04:53:47.603Z,28.72
2017-05-12T04:54:58.206Z,28.52
2017-05-12T04:56:08.495Z,28.52
2017-05-12T04:57:18.470Z,28.33
2017-05-12T04:58:28.767Z,28.14
2017-05-12T04:59:39.051Z,28.23
2017-05-12T05:00:49.276Z,28.33
2017-05-12T05:01:59.554Z,28.23
2017-05-12T05:03:09.531Z,28.23
2017-05-12T05:04:19.818Z,28.23
2017-05-12T05:05:30.115Z,28.23
2017-05-12T05:06:40.703Z,28.33
2017-05-12T05:07:50.987Z,28.23
2017-05-12T05:09:00.947Z,28.14
2017-05-12T05:10:10.925Z,28.23
2017-05-12T05:11:20.891Z,28.33
2017-05-12T05:12:31.469Z,28.23
2017-05-12T05:13:41.820Z,28.23
2017-05-12T05:14:52.107Z,28.14
2017-05-12T05:16:02.404Z,28.14
2017-05-12T05:17:12.377Z,28.14
2017-05-12T05:18:22.332Z,28.25
2017-05-12T05:19:32.615Z,27.67
2017-05-12T05:20:42.944Z,27.48
2017-05-12T05:21:53.225Z,27.96
2017-05-12T05:23:03.526Z,28.14
2017-05-12T05:24:14.113Z,28.42
2017-05-12T05:25:24.407Z,28.23
2017-05-12T05:26:34.684Z,28.62
2017-05-12T05:27:44.660Z,28.62
2017-05-12T05:28:54.634Z,28.8
2017-05-12T05:30:04.867Z,28.99
2017-05-12T05:31:15.174Z,28.99
2017-05-12T05:32:25.466Z,28.89
2017-05-12T05:33:35.763Z,28.7
2017-05-12T05:34:46.053Z,28.89
2017-05-12T05:35:56.583Z,28.99
2017-05-12T05:37:06.910Z,28.8
2017-05-12T05:38:17.199Z,28.89
2017-05-12T05:39:27.175Z,28.89
2017-05-12T05:40:36.839Z,29.08
2017-05-12T05:41:47.066Z,29.08
2017-05-12T05:42:57.353Z,29.08
2017-05-12T05:44:07.665Z,28.99
2017-05-12T05:45:17.964Z,28.99
2017-05-12T05:46:27.943Z,29
2017-05-12T05:47:38.213Z,28.89
2017-05-12T05:48:48.499Z,28.99
2017-05-12T05:49:58.805Z,29.08
2017-05-12T05:51:09.097Z,29.18
2017-05-12T05:52:19.611Z,29.18
2017-05-12T05:53:30.198Z,29.08
2017-05-12T05:54:40.492Z,28.99
2017-05-12T05:55:50.791Z,28.72
2017-05-12T05:57:01.131Z,28.62
2017-05-12T05:58:11.107Z,28.62
2017-05-12T05:59:21.642Z,28.91
2017-05-12T06:00:31.928Z,28.91
2017-05-12T06:01:42.225Z,28.91
2017-05-12T06:02:52.521Z,28.91
2017-05-12T06:04:02.803Z,28.52
2017-05-12T06:05:13.086Z,28.04
2017-05-12T06:06:23.386Z,28.42
2017-05-12T06:07:33.713Z,27.96
2017-05-12T06:08:44.043Z,28.15
2017-05-12T06:09:54.034Z,27.96
2017-05-12T06:11:04.314Z,28.05
2017-05-12T06:12:14.596Z,27.76
2017-05-12T06:13:24.892Z,27.67
2017-05-12T06:14:35.176Z,27.76
2017-05-12T06:15:45.472Z,27.78
2017-05-12T06:16:55.787Z,27.48
2017-05-12T06:18:05.760Z,27.39
2017-05-12T06:19:16.040Z,27.39
2017-05-12T06:20:26.038Z,27.49
2017-05-12T06:21:36.009Z,27.2
2017-05-12T06:22:46.559Z,27.2
2017-05-12T06:23:56.871Z,27.39
2017-05-12T06:25:06.846Z,27.68
2017-05-12T06:26:16.821Z,27.78
2017-05-12T06:27:27.103Z,27.2
2017-05-12T06:28:37.069Z,27.4
2017-05-12T06:29:47.041Z,27.22
2017-05-12T06:30:57.335Z,27.31
2017-05-12T06:32:07.615Z,27.31
2017-05-12T06:33:17.607Z,26.92
2017-05-12T06:34:28.140Z,27.12
2017-05-12T06:35:38.431Z,27.12
2017-05-12T06:36:48.728Z,27.22
2017-05-12T06:37:59.034Z,26.82
2017-05-12T06:39:09.322Z,26.92
2017-05-12T06:40:19.869Z,26.92
2017-05-12T06:41:29.543Z,26.92
2017-05-12T06:42:39.825Z,27.02
2017-05-12T06:43:49.803Z,26.84
2017-05-12T06:45:00.101Z,26.73
2017-05-12T06:46:10.692Z,26.75
2017-05-12T06:47:20.990Z,26.73
2017-05-12T06:48:30.668Z,27.03
2017-05-12T06:49:40.955Z,26.92
2017-05-12T06:50:50.944Z,26.82
2017-05-12T06:52:01.544Z,27.22
2017-05-12T06:53:11.841Z,27.31
2017-05-12T06:54:22.140Z,27.5
2017-05-12T06:55:32.435Z,27.5
2017-05-12T06:56:42.747Z,27.8
2017-05-12T06:57:53.285Z,27.7
2017-05-12T06:59:03.578Z,27.89
2017-05-12T07:00:13.891Z,28.28
2017-05-12T07:01:24.186Z,28.28
2017-05-12T07:02:34.264Z,27.98
2017-05-12T07:03:44.811Z,28.08
2017-05-12T07:04:55.115Z,28.56
2017-05-12T07:06:05.088Z,28.18
2017-05-12T07:07:15.061Z,28.28
2017-05-12T07:08:25.369Z,27.98
2017-05-12T07:09:35.909Z,28.95
2017-05-12T07:10:45.890Z,28.56
2017-05-12T07:11:55.868Z,28.56
2017-05-12T07:13:06.181Z,28.95
2017-05-12T07:14:16.476Z,29.14
2017-05-12T07:15:27.036Z,29.05
2017-05-12T07:16:37.321Z,28.87
2017-05-12T07:17:47.288Z,29.16
2017-05-12T07:18:57.280Z,28.87
2017-05-12T07:20:07.266Z,28.77
2017-05-12T07:21:17.843Z,28.87
2017-05-12T07:22:28.155Z,29.06
2017-05-12T07:23:38.437Z,28.87
2017-05-12T07:24:48.422Z,28.09
2017-05-12T07:25:58.094Z,28.29
2017-05-12T07:27:08.327Z,28.37
2017-05-12T07:28:18.617Z,28.56
2017-05-12T07:29:28.911Z,28.56
2017-05-12T07:30:38.889Z,28.76
2017-05-12T07:31:48.871Z,28.58
2017-05-12T07:32:59.125Z,28.39
2017-05-12T07:34:09.453Z,28.09
2017-05-12T07:35:19.121Z,28.77
2017-05-12T07:36:29.415Z,28.66
2017-05-12T07:37:39.750Z,28.66
2017-05-12T07:38:50.294Z,28.95
2017-05-12T07:40:00.278Z,28.67
2017-05-12T07:41:10.566Z,28.58
2017-05-12T07:42:21.109Z,28.67
2017-05-12T07:43:31.419Z,28.67
2017-05-12T07:44:41.649Z,28.67
2017-05-12T07:45:51.623Z,28.09
2017-05-12T07:47:01.354Z,28.58
2017-05-12T07:48:11.653Z,28.39
2017-05-12T07:49:21.625Z,28
2017-05-12T07:50:32.183Z,28.29
2017-05-12T07:51:42.174Z,28.3
2017-05-12T07:52:52.474Z,28.3
2017-05-12T07:54:02.485Z,28.19
2017-05-12T07:55:12.470Z,28.19
2017-05-12T07:56:23.003Z,28.29
2017-05-12T07:57:32.988Z,28.09
2017-05-12T07:58:43.287Z,28.29
2017-05-12T07:59:52.960Z,28.19
2017-05-12T08:01:03.326Z,28.48
2017-05-12T08:02:13.685Z,28.29
2017-05-12T08:03:23.975Z,28.29
2017-05-12T08:04:33.963Z,28.39
2017-05-12T08:05:44.268Z,27.91
2017-05-12T08:06:53.975Z,28.19
2017-05-12T08:08:04.520Z,28.19
2017-05-12T08:09:14.826Z,28.29
2017-05-12T08:10:25.131Z,28.19
2017-05-12T08:11:35.115Z,27.91
2017-05-12T08:12:45.409Z,27.51
2017-05-12T08:13:55.636Z,27.81
2017-05-12T08:15:05.923Z,27.71
2017-05-12T08:16:16.268Z,27.81
2017-05-12T08:17:26.248Z,27.61
2017-05-12T08:18:36.248Z,27.51
2017-05-12T08:19:46.512Z,27.53
2017-05-12T08:20:56.810Z,27.53
2017-05-12T08:22:07.104Z,27.24
2017-05-12T08:23:17.387Z,27.34
2017-05-12T08:24:27.374Z,27.34
2017-05-12T08:25:37.008Z,27.44
2017-05-12T08:26:47.319Z,27.53
2017-05-12T08:27:57.347Z,27.24
2017-05-12T08:29:07.021Z,27.14
2017-05-12T08:30:17.364Z,27.42
2017-05-12T08:31:27.595Z,27.13
2017-05-12T08:32:37.587Z,27.44
2017-05-12T08:33:47.875Z,27.34
2017-05-12T08:34:57.545Z,27.62
2017-05-12T08:36:07.842Z,27.34
2017-05-12T08:37:18.413Z,27.44
2017-05-12T08:38:28.390Z,27.34
2017-05-12T08:39:38.681Z,27.44
2017-05-12T08:40:48.971Z,27.53
2017-05-12T08:41:58.642Z,27.62
2017-05-12T08:43:09.179Z,27.53
2017-05-12T08:44:19.478Z,27.72
2017-05-12T08:45:29.777Z,27.53
2017-05-12T08:46:40.076Z,27.44
2017-05-12T08:47:50.354Z,27.44
2017-05-12T08:49:00.924Z,27.51
2017-05-12T08:50:10.914Z,27.91
2017-05-12T08:51:20.912Z,27.81
2017-05-12T08:52:30.886Z,27.71
2017-05-12T08:53:41.179Z,27.61
2017-05-12T08:54:51.472Z,27.53
2017-05-12T08:56:01.757Z,27.62
2017-05-12T08:57:11.748Z,27.71
2017-05-12T08:58:22.043Z,28
2017-05-12T08:59:32.357Z,27.92
2017-05-12T09:00:42.908Z,28
2017-05-12T09:01:53.203Z,28
2017-05-12T09:03:03.184Z,28.19
2017-05-12T09:04:13.481Z,27.81
2017-05-12T09:05:23.787Z,28.09
2017-05-12T09:06:34.326Z,28.2
2017-05-12T09:07:44.616Z,28.29
2017-05-12T09:08:54.907Z,28.29
2017-05-12T09:10:04.897Z,28.39
2017-05-12T09:11:15.183Z,28.39
2017-05-12T09:12:25.743Z,28.19
2017-05-12T09:13:36.039Z,28.09
2017-05-12T09:14:46.026Z,28.29
2017-05-12T09:15:56.023Z,28.39
2017-05-12T09:17:06.306Z,28.4
2017-05-12T09:18:16.227Z,28.3
2017-05-12T09:19:26.522Z,28.3
2017-05-12T09:20:36.816Z,28.88
2017-05-12T09:21:47.114Z,29.08
2017-05-12T09:22:57.087Z,29.16
2017-05-12T09:24:07.340Z,29.66
2017-05-12T09:25:17.645Z,29.46
2017-05-12T09:26:27.653Z,29.56
2017-05-12T09:27:37.703Z,29.36
2017-05-12T09:28:48.057Z,29.36
2017-05-12T09:29:58.353Z,29.56
2017-05-12T09:31:08.660Z,29.75
2017-05-12T09:32:18.874Z,29.56
2017-05-12T09:33:29.016Z,29.75
2017-05-12T09:34:39.316Z,29.94
2017-05-12T09:35:49.569Z,30.04
2017-05-12T09:36:59.868Z,30.14
2017-05-12T09:38:10.178Z,30.04
2017-05-12T09:39:20.502Z,30.14
2017-05-12T09:40:30.855Z,29.85
2017-05-12T09:41:41.389Z,30.14
2017-05-12T09:42:51.696Z,30.14
2017-05-12T09:44:01.986Z,30.14
2017-05-12T09:45:12.286Z,30.62
2017-05-12T09:46:22.581Z,30.62
2017-05-12T09:47:33.132Z,30.52
2017-05-12T09:48:43.419Z,30.52
2017-05-12T09:49:53.719Z,30.52
2017-05-12T09:51:04.017Z,30.52
2017-05-12T09:52:14.304Z,30.43
2017-05-12T09:53:28.439Z,30.91
2017-05-12T09:54:38.422Z,30.82
2017-05-12T09:55:48.419Z,30.91
2017-05-12T09:56:58.715Z,30.91
2017-05-12T09:58:09.000Z,31.01
2017-05-12T09:59:19.551Z,31.1
2017-05-12T10:00:29.844Z,31.2
2017-05-12T10:01:40.171Z,31.1
2017-05-12T10:02:50.468Z,31.4
2017-05-12T10:04:00.765Z,31.49
2017-05-12T10:05:11.326Z,31.68
2017-05-12T10:06:21.627Z,31.49
2017-05-12T10:07:31.913Z,31.49
2017-05-12T10:08:42.353Z,31.49
2017-05-12T10:09:52.329Z,31.49
2017-05-12T10:11:02.893Z,31.4
2017-05-12T10:12:13.195Z,31.59
2017-05-12T10:13:22.878Z,31.88
2017-05-12T10:14:33.210Z,31.78
2017-05-12T10:15:43.557Z,31.88
2017-05-12T10:16:54.114Z,31.86
2017-05-12T10:18:04.407Z,31.86
2017-05-12T10:19:14.417Z,31.86
2017-05-12T10:20:24.413Z,31.67
2017-05-12T10:21:34.734Z,31.76
2017-05-12T10:22:45.291Z,31.67
2017-05-12T10:23:55.264Z,31.67
2017-05-12T10:25:05.560Z,31.48
2017-05-12T10:26:15.860Z,31.38
2017-05-12T10:27:26.158Z,31.28
2017-05-12T10:28:36.769Z,31.28
2017-05-12T10:29:46.777Z,31.38
2017-05-12T10:30:57.110Z,31.28
2017-05-12T10:32:07.654Z,31.28
2017-05-12T10:33:17.896Z,31.18
2017-05-12T10:34:28.141Z,31.09
2017-05-12T10:35:38.147Z,31.18
2017-05-12T10:36:48.470Z,31.18
2017-05-12T10:37:58.774Z,31.18
2017-05-12T10:39:08.506Z,31.18
2017-05-12T10:40:18.782Z,31.09
2017-05-12T10:41:29.101Z,31.09
2017-05-12T10:42:39.171Z,31.09
2017-05-12T10:43:49.245Z,31.18
2017-05-12T10:44:59.638Z,31.09
2017-05-12T10:46:09.898Z,30.99
2017-05-12T10:47:20.233Z,30.9
2017-05-12T10:48:30.620Z,30.9
2017-05-12T10:49:40.952Z,30.8
2017-05-12T10:50:50.659Z,30.99
2017-05-12T10:52:01.221Z,30.99
2017-05-12T10:53:11.567Z,30.99
2017-05-12T10:54:21.568Z,30.8
2017-05-12T10:55:31.858Z,30.7
2017-05-12T10:56:42.196Z,30.9
2017-05-12T10:57:52.741Z,30.8
2017-05-12T10:59:03.034Z,30.61
2017-05-12T11:00:13.348Z,30.51
2017-05-12T11:01:23.640Z,30.62
2017-05-12T11:02:33.643Z,30.24
2017-05-12T11:03:44.194Z,30.41
2017-05-12T11:04:54.497Z,30.24
2017-05-12T11:06:04.786Z,30.33
2017-05-12T11:07:15.125Z,30.24
2017-05-12T11:08:25.111Z,29.94
2017-05-12T11:09:35.350Z,29.85
2017-05-12T11:10:45.637Z,29.94
2017-05-12T11:11:55.983Z,30.04
2017-05-12T11:13:06.293Z,29.56
2017-05-12T11:14:16.282Z,30.04
2017-05-12T11:15:26.823Z,29.75
2017-05-12T11:16:36.809Z,29.75
2017-05-12T11:17:46.791Z,29.94
2017-05-12T11:18:56.765Z,29.56
2017-05-12T11:20:06.764Z,29.56
2017-05-12T11:21:16.993Z,29.56
2017-05-12T11:22:27.302Z,29.46
2017-05-12T11:23:37.613Z,29.46
2017-05-12T11:24:47.915Z,29.36
2017-05-12T11:25:57.896Z,29.56
2017-05-12T11:27:08.124Z,29.56
2017-05-12T11:28:17.801Z,29.27
2017-05-12T11:29:28.097Z,29.56
2017-05-12T11:30:38.085Z,29.66
2017-05-12T11:31:48.389Z,29.75
2017-05-12T11:32:58.653Z,29.75
2017-05-12T11:34:08.982Z,29.94
2017-05-12T11:35:19.281Z,29.56
2017-05-12T11:36:29.264Z,29.85
2017-05-12T11:37:39.798Z,29.94
2017-05-12T11:38:50.363Z,30.14
2017-05-12T11:40:00.657Z,29.85
2017-05-12T11:41:10.957Z,29.94
2017-05-12T11:42:20.313Z,29.85
2017-05-12T11:43:30.610Z,29.94
2017-05-12T11:44:40.853Z,30.04
2017-05-12T11:45:51.187Z,30.14
2017-05-12T11:47:01.484Z,30.43
2017-05-12T11:48:11.489Z,30.24
2017-05-12T11:49:21.799Z,30.04
2017-05-12T11:50:32.353Z,30.24
2017-05-12T11:51:42.649Z,30.24
2017-05-12T11:52:52.643Z,30.24
2017-05-12T11:54:02.935Z,30.43
2017-05-12T11:55:13.277Z,30.04
2017-05-12T11:56:23.882Z,30.62
2017-05-12T11:57:34.189Z,30.24
2017-05-12T11:58:44.509Z,30.62
2017-05-12T11:59:54.495Z,30.43
2017-05-12T12:01:04.798Z,30.52
2017-05-12T12:02:15.049Z,30.72
2017-05-12T12:03:25.351Z,30.82
2017-05-12T12:04:35.363Z,30.72
2017-05-12T12:05:45.649Z,30.82
2017-05-12T12:06:56.002Z,30.82
2017-05-12T12:08:06.239Z,30.91
2017-05-12T12:09:16.545Z,30.72
2017-05-12T12:10:26.848Z,30.82
2017-05-12T12:11:36.845Z,31.01
2017-05-12T12:12:46.814Z,31.1
2017-05-12T12:13:57.042Z,31.2
2017-05-12T12:15:07.336Z,31.01
2017-05-12T12:16:17.336Z,31.1
2017-05-12T12:17:27.636Z,31.01
2017-05-12T12:18:37.936Z,30.82
2017-05-12T12:19:48.477Z,30.82
2017-05-12T12:20:58.794Z,30.91
2017-05-12T12:22:08.773Z,31.01
2017-05-12T12:23:18.762Z,30.91
2017-05-12T12:24:28.759Z,30.82
2017-05-12T12:25:39.341Z,31.01
2017-05-12T12:26:49.684Z,30.82
2017-05-12T12:27:59.982Z,30.62
2017-05-12T12:29:10.265Z,30.62
2017-05-12T12:30:20.253Z,30.82
2017-05-12T12:31:30.813Z,30.72
2017-05-12T12:32:41.106Z,30.62
2017-05-12T12:33:50.787Z,30.52
2017-05-12T12:35:01.105Z,30.52
2017-05-12T12:36:11.433Z,30.52
2017-05-12T12:37:22.015Z,30.52
2017-05-12T12:38:32.016Z,30.62
2017-05-12T12:39:42.334Z,30.24
2017-05-12T12:40:52.626Z,30.14
2017-05-12T12:42:02.614Z,30.14
2017-05-12T12:43:13.163Z,30.24
2017-05-12T12:44:23.466Z,30.24
2017-05-12T12:45:33.816Z,30.14
2017-05-12T12:46:44.191Z,30.14
2017-05-12T12:47:54.485Z,30.04
2017-05-12T12:49:04.764Z,30.04
2017-05-12T12:50:15.053Z,30.14
2017-05-12T12:51:25.346Z,29.94
2017-05-12T12:52:35.325Z,29.94
2017-05-12T12:53:45.612Z,30.14
2017-05-12T12:54:55.849Z,30.14
2017-05-12T12:56:05.824Z,30.14
2017-05-12T12:57:16.115Z,30.04
2017-05-12T12:58:26.101Z,30.33
2017-05-12T12:59:36.405Z,30.24
2017-05-12T13:00:46.650Z,30.14
2017-05-12T13:01:56.627Z,29.94
2017-05-12T13:03:06.913Z,29.94
2017-05-12T13:04:17.210Z,29.85
2017-05-12T13:05:27.504Z,29.94
2017-05-12T13:06:38.052Z,29.94
2017-05-12T13:07:48.347Z,29.94
2017-05-12T13:08:58.327Z,29.85
2017-05-12T13:10:08.614Z,29.94
2017-05-12T13:11:18.600Z,29.85
2017-05-12T13:12:28.838Z,29.94
2017-05-12T13:13:39.125Z,29.85
2017-05-12T13:14:49.653Z,29.94
2017-05-12T13:15:59.942Z,30.33
2017-05-12T13:17:10.249Z,30.33
2017-05-12T13:18:20.796Z,30.24
2017-05-12T13:19:31.120Z,30.24
2017-05-12T13:20:41.437Z,30.33
2017-05-12T13:21:51.727Z,30.24
2017-05-12T13:23:02.018Z,30.04
2017-05-12T13:24:12.556Z,30.33
2017-05-12T13:25:22.533Z,30.24
2017-05-12T13:26:32.837Z,30.14
2017-05-12T13:27:43.126Z,30.04
2017-05-12T13:28:53.419Z,30.24
2017-05-12T13:30:03.331Z,30.43
2017-05-12T13:31:13.637Z,30.24
2017-05-12T13:32:23.931Z,30.14
2017-05-12T13:33:34.218Z,30.43
2017-05-12T13:34:44.529Z,30.24
2017-05-12T13:35:55.066Z,30.14
2017-05-12T13:37:05.361Z,30.24
2017-05-12T13:38:15.657Z,30.24
2017-05-12T13:39:25.937Z,30.14
2017-05-12T13:40:36.255Z,30.14
2017-05-12T13:41:46.477Z,30.52
2017-05-12T13:42:56.764Z,30.62
2017-05-12T13:44:06.753Z,30.52
2017-05-12T13:45:17.037Z,30.52
2017-05-12T13:46:27.379Z,30.52
2017-05-12T13:47:37.608Z,30.33
2017-05-12T13:48:47.902Z,30.52
2017-05-12T13:49:58.191Z,30.52
2017-05-12T13:51:08.173Z,30.52
2017-05-12T13:52:18.472Z,30.72
2017-05-12T13:53:29.023Z,30.62
2017-05-12T13:54:38.999Z,30.62
2017-05-12T13:55:49.296Z,30.43
2017-05-12T13:56:59.275Z,30.62
2017-05-12T13:58:08.947Z,30.72
2017-05-12T13:59:19.175Z,30.62
2017-05-12T14:00:29.469Z,30.62
2017-05-12T14:01:39.447Z,30.52
2017-05-12T14:02:49.739Z,30.52
2017-05-12T14:03:59.721Z,30.52
2017-05-12T14:05:10.024Z,30.62
2017-05-12T14:06:20.302Z,30.33
2017-05-12T14:07:30.301Z,30.62
2017-05-12T14:08:40.592Z,30.52
2017-05-12T14:09:50.897Z,30.52
2017-05-12T14:11:01.434Z,30.52
2017-05-12T14:12:11.725Z,30.62
2017-05-12T14:13:22.013Z,30.62
2017-05-12T14:14:31.676Z,30.43
2017-05-12T14:15:41.335Z,30.24
2017-05-12T14:16:51.584Z,30.14
2017-05-12T14:18:01.873Z,30.24
2017-05-12T14:19:12.178Z,29.94
2017-05-12T14:20:22.474Z,29.94
2017-05-12T14:21:32.770Z,30.04
2017-05-12T14:22:43.317Z,29.85
2017-05-12T14:23:53.298Z,29.94
2017-05-12T14:25:03.587Z,29.85
2017-05-12T14:26:13.885Z,30.04
2017-05-12T14:27:24.179Z,29.94
2017-05-12T14:28:34.717Z,29.56
2017-05-12T14:29:45.004Z,29.75
2017-05-12T14:30:55.302Z,30.04
2017-05-12T14:32:05.603Z,29.75
2017-05-12T14:33:15.904Z,30.04
2017-05-12T14:34:26.438Z,29.46
2017-05-12T14:35:36.412Z,29.85
2017-05-12T14:36:46.402Z,29.56
2017-05-12T14:37:56.378Z,29.36
2017-05-12T14:39:06.369Z,29.46
2017-05-12T14:40:16.607Z,29.94
2017-05-12T14:41:26.908Z,29.66
2017-05-12T14:42:36.895Z,29.36
2017-05-12T14:43:47.191Z,29.46
2017-05-12T14:44:57.675Z,29.36
2017-05-12T14:46:08.217Z,29.36
2017-05-12T14:47:18.187Z,29.66
2017-05-12T14:48:28.472Z,29.08
2017-05-12T14:49:38.757Z,29.08
2017-05-12T14:50:49.044Z,28.98
2017-05-12T14:51:59.595Z,28.69
2017-05-12T14:53:09.883Z,28.3
2017-05-12T14:54:20.196Z,28.4
2017-05-12T14:55:30.478Z,28.2
2017-05-12T14:56:40.765Z,28.11
2017-05-12T14:57:50.999Z,28.3
2017-05-12T14:59:00.979Z,28.2
2017-05-12T15:00:10.955Z,27.92
2017-05-12T15:01:21.251Z,27.72
2017-05-12T15:02:31.567Z,27.62
2017-05-12T15:03:42.103Z,27.14
2017-05-12T15:04:52.387Z,27.34
2017-05-12T15:06:02.677Z,26.56
2017-05-12T15:07:12.968Z,26.66